Ponta Pora, Brazil
Current Conditions -  °F | °C
As of 9:00 AM on Sunday 21 Dec 2014 (Local Time) from SBPP Reporting Station
Broken Clouds Broken Clouds  
Wind Chill: 77°   Ceiling: 1500
Heat Index: 79°   Visibility: 6mi
Dew Point: 70°   Wind: 17mph
Humidity: 78%   Direction: 300°WNW
Pressure: 29.83"   Gusts: NA
Location:  22.53°S, 55.73°W
Report Text: SBPP 211200Z 30015KT 9999 BKN015 25/21 Q1010
Loading
Personal Weather Stations






























Interactive Weather Map New forecast layout! Learn more

10-Day Weather Forecast

Advertisements
Track Severe Weather on mobile